Portada
METAR-TAF:

METAR-TAF

Aeroports :

Angeles, Filipines

latitud: 15-11N, longitud: 120-33E, altitud: 148 m

Observació

L'informe es va fer fa 21 minuts, a les 22:00 UTC
Vent 2 kt del Nord
Temperatura 25°C
Humitat 94%
Pressió 1007 hPa
Visibilitat: 3000 m
Núvols disperses a una alçada de 1800 ft
Cel ennuvolat a una alçada de 9000 ft
boirina

METAR: RPLC 152200Z 35002KT 3000 BR SCT018 BKN090 25/24 Q1007 RERA RMK A2974

Hora: 06:21 (22:21 UTC)

Pronòstic

L'informe es va fer fa 5 hores i 21 minuts, a les 17:00 UTC
Pronòstic vàlid del 15 a les 18 UTC al 16 a les 24 UTC
Vent 8 kt del Sud
Visibilitat: 7000 m
Núvols disperses a una alçada de 2000 ft
Cel ennuvolat a una alçada de 10000 ft
Temporalment
l' 15 a les 18 UTC al 15 a les 24 UTC
Vent 5 kt del Oest/Sud-Oest
Visibilitat: 5000 m
Núvols disperses a una alçada de 1800 ft
Cel cobert a una alçada de 9000 ft
pluja

TAF: RPLC 151700Z 1518/1624 18008KT 7000 SCT020 BKN100 TX29/1606Z TN25/1522Z TEMPO 1518/1524 25005KT 5000 -RA SCT018 OVC090

Observacions i pronòstics meteorològics de més de 4000 aeroports (METAR i TAF).

Les estacions disponibles són els punts grocs i vermells al mapa.

Posi el ratolí al punt desitjat per veure el nom de l'estació.

Feu clic per veure les observacions i els pronòstics meteorològics.

Per canviar el mapa: feu clic els botons verds amb una creu de color negre per apropar; al botó verd amb un guió per allunyar la imatge; o en les fletxes verdes per a mapes adjacents.


METAR-TAF: